Terminal Aerodrome Forecast
Issued by NWS Sioux Falls, SD

Home | Current Version | Previous Version | Graphics & Text | Print | Product List | Glossary Off
Versions: 1 2 3 4 5 6 7 8 9 10 11 12 13 14 15 16 17 18 19 20

000
FTUS43 KFSD 292320
TAFHON
TAF
KHON 292320Z 3000/3024 VRB04KT P6SM SCT120
     FM300700 14006KT P6SM VCTS BKN080CB
     FM301300 14010KT P6SM BKN120
     FM301500 14012KT P6SM BKN100
     FM301900 16016G24KT P6SM SCT060 SCT100=

USA.gov is the U.S. government's official web portal to all federal, state and local government web resources and services.